Time,TemperatureF,DewpointF,PressureIn,WindDirection,WindDirectionDegrees,WindSpeedMPH,WindSpeedGustMPH,Humidity,HourlyPrecipIn,Conditions,Clouds,dailyrainin,SolarRadiationWatts/m^2,SoftwareType,DateUTC
2013-01-13 00:02:00,2.0,-2.0,30.06,NNW,344,1.0,1.0,79,-99.99,,,-99.99,0.000000,,2013-01-13 07:02:00,
2013-01-13 00:11:00,2.0,-3.0,30.07,North,359,1.0,1.0,79,-99.99,,,-99.99,-0.100000,,2013-01-13 07:11:00,
2013-01-13 00:22:00,2.0,-3.0,30.06,ESE,111,3.0,5.0,79,-99.99,,,-99.99,-0.100000,,2013-01-13 07:22:00,
2013-01-13 00:32:00,1.0,-4.0,30.06,ESE,117,4.0,4.0,78,-99.99,,,-99.99,0.000000,,2013-01-13 07:32:00,
2013-01-13 00:42:00,0.0,-5.0,30.07,ESE,116,3.0,4.0,78,-99.99,,,-99.99,0.000000,,2013-01-13 07:42:00,
2013-01-13 00:52:00,0.0,-5.0,30.07,East,79,2.0,2.0,79,-99.99,,,-99.99,0.000000,,2013-01-13 07:52:00,
2013-01-13 01:01:00,1.0,-4.0,30.07,NE,42,1.0,2.0,79,-99.99,,,-99.99,-0.100000,,2013-01-13 08:01:00,
2013-01-13 01:11:00,-1.0,-6.0,30.06,ENE,77,3.0,4.0,78,-99.99,,,-99.99,-0.100000,,2013-01-13 08:11:00,
2013-01-13 01:22:00,-1.0,-5.0,30.06,ENE,59,4.0,4.0,79,-99.99,,,-99.99,0.000000,,2013-01-13 08:22:00,
2013-01-13 01:32:00,-3.0,-8.0,30.06,ENE,70,4.0,5.0,77,-99.99,,,-99.99,0.000000,,2013-01-13 08:32:00,
2013-01-13 01:42:00,-3.0,-8.0,30.06,ENE,67,3.0,3.0,78,-99.99,,,-99.99,-0.200000,,2013-01-13 08:42:00,
2013-01-13 01:52:00,-3.0,-8.0,30.07,East,84,2.0,2.0,78,-99.99,,,-99.99,0.000000,,2013-01-13 08:52:00,
2013-01-13 02:02:00,-4.0,-9.0,30.06,East,101,3.0,4.0,77,-99.99,,,-99.99,0.000000,,2013-01-13 09:02:00,
2013-01-13 02:11:00,-4.0,-10.0,30.07,East,91,3.0,3.0,77,-99.99,,,-99.99,0.000000,,2013-01-13 09:11:00,
2013-01-13 02:22:00,-5.0,-10.0,30.06,SE,137,2.0,3.0,77,-99.99,,,-99.99,-0.100000,,2013-01-13 09:22:00,
2013-01-13 02:42:00,-7.0,-12.0,30.07,SW,223,4.0,4.0,76,-99.99,,,-99.99,-0.100000,,2013-01-13 09:42:00,
2013-01-13 02:52:00,-7.0,-13.0,30.07,WSW,241,3.0,4.0,75,-99.99,,,-99.99,0.000000,,2013-01-13 09:52:00,
2013-01-13 03:02:00,-9.0,-14.0,30.07,SW,215,2.0,3.0,75,-99.99,,,-99.99,0.000000,,2013-01-13 10:02:00,
2013-01-13 03:11:00,-9.0,-15.0,30.08,SSW,203,2.0,2.0,75,-99.99,,,-99.99,-0.100000,,2013-01-13 10:11:00,
2013-01-13 03:22:00,-9.0,-14.0,30.08,SSW,201,2.0,3.0,74,-99.99,,,-99.99,0.000000,,2013-01-13 10:22:00,
2013-01-13 03:32:00,-10.0,-16.0,30.08,SW,224,2.0,2.0,73,-99.99,,,-99.99,0.000000,,2013-01-13 10:32:00,
2013-01-13 03:52:00,-12.0,-18.0,30.08,SE,124,2.0,2.0,74,-99.99,,,-99.99,0.000000,,2013-01-13 10:52:00,
2013-01-13 04:02:00,-12.0,-18.0,30.08,ESE,109,2.0,2.0,73,-99.99,,,-99.99,-0.100000,,2013-01-13 11:02:00,
2013-01-13 04:11:00,-13.0,-19.0,30.07,ESE,108,4.0,5.0,73,-99.99,,,-99.99,-0.100000,,2013-01-13 11:11:00,
2013-01-13 04:22:00,-14.0,-21.0,30.08,SE,133,3.0,4.0,71,-99.99,,,-99.99,-0.100000,,2013-01-13 11:22:00,
2013-01-13 04:32:00,-13.0,-19.0,30.08,SE,124,3.0,4.0,73,-99.99,,,-99.99,-0.100000,,2013-01-13 11:32:00,
2013-01-13 04:42:00,-12.0,-18.0,30.07,SE,145,2.0,3.0,74,-99.99,,,-99.99,-0.200000,,2013-01-13 11:42:00,
2013-01-13 04:52:00,-10.0,-16.0,30.07,South,178,2.0,2.0,75,-99.99,,,-99.99,0.000000,,2013-01-13 11:52:00,
2013-01-13 05:02:00,-9.0,-15.0,30.07,SE,136,2.0,3.0,74,-99.99,,,-99.99,-0.100000,,2013-01-13 12:02:00,
2013-01-13 05:11:00,-10.0,-16.0,30.07,East,88,3.0,3.0,74,-99.99,,,-99.99,-0.100000,,2013-01-13 12:11:00,
2013-01-13 05:22:00,-9.0,-15.0,30.07,East,90,2.0,3.0,74,-99.99,,,-99.99,0.000000,,2013-01-13 12:22:00,
2013-01-13 05:52:00,-7.0,-12.0,30.07,ESE,122,2.0,3.0,75,-99.99,,,-99.99,-0.100000,,2013-01-13 12:52:00,
2013-01-13 06:02:00,-6.0,-12.0,30.07,South,171,2.0,3.0,76,-99.99,,,-99.99,0.000000,,2013-01-13 13:02:00,
2013-01-13 06:11:00,-6.0,-11.0,30.08,South,175,2.0,2.0,76,-99.99,,,-99.99,0.000000,,2013-01-13 13:11:00,
2013-01-13 06:32:00,-5.0,-10.0,30.08,SE,145,1.0,1.0,76,-99.99,,,-99.99,0.000000,,2013-01-13 13:32:00,
2013-01-13 06:42:00,-5.0,-10.0,30.09,SE,124,2.0,2.0,77,-99.99,,,-99.99,-0.100000,,2013-01-13 13:42:00,
2013-01-13 06:52:00,-4.0,-9.0,30.09,ESE,111,3.0,3.0,77,-99.99,,,-99.99,0.000000,,2013-01-13 13:52:00,
2013-01-13 07:02:00,-5.0,-10.0,30.09,East,92,4.0,4.0,76,-99.99,,,-99.99,0.000000,,2013-01-13 14:02:00,
2013-01-13 07:12:00,-5.0,-10.0,30.09,East,81,4.0,6.0,77,-99.99,,,-99.99,-0.100000,,2013-01-13 14:12:00,
2013-01-13 07:22:00,-6.0,-11.0,30.10,North,356,6.0,7.0,75,-99.99,,,-99.99,-0.100000,,2013-01-13 14:22:00,
2013-01-13 07:52:00,-6.0,-12.0,30.12,NNW,342,5.0,6.0,76,-99.99,,,-99.99,0.000000,,2013-01-13 14:52:00,
2013-01-13 10:52:00,-3.0,-8.0,30.14,West,268,3.0,4.0,77,-99.99,,,-99.99,144.300003,,2013-01-13 17:52:00,
2013-01-13 11:11:00,-2.0,-7.0,30.15,NW,305,4.0,5.0,78,-99.99,,,-99.99,190.000000,,2013-01-13 18:11:00,
2013-01-13 13:02:00,-1.0,-6.0,30.13,North,2,2.0,3.0,78,-99.99,,,-99.99,254.800003,,2013-01-13 20:02:00,
2013-01-13 13:32:00,0.0,-5.0,30.12,North,355,3.0,4.0,77,-99.99,,,-99.99,269.200012,,2013-01-13 20:32:00,
2013-01-13 13:42:00,0.0,-5.0,30.13,North,10,4.0,5.0,77,-99.99,,,-99.99,266.000000,,2013-01-13 20:42:00,
2013-01-13 14:12:00,0.0,-6.0,30.13,North,4,5.0,6.0,73,-99.99,,,-99.99,228.199997,,2013-01-13 21:12:00,
2013-01-13 14:32:00,0.0,-6.0,30.14,North,11,3.0,4.0,73,-99.99,,,-99.99,197.500000,,2013-01-13 21:32:00,
2013-01-13 14:42:00,1.0,-6.0,30.14,North,10,2.0,3.0,72,-99.99,,,-99.99,242.300003,,2013-01-13 21:42:00,
2013-01-13 14:52:00,1.0,-6.0,30.15,NE,41,3.0,4.0,72,-99.99,,,-99.99,226.399994,,2013-01-13 21:52:00,
2013-01-13 15:02:00,1.0,-6.0,30.15,ENE,59,3.0,3.0,72,-99.99,,,-99.99,210.699997,,2013-01-13 22:02:00,
2013-01-13 15:11:00,1.0,-5.0,30.15,ENE,64,2.0,4.0,72,-99.99,,,-99.99,202.399994,,2013-01-13 22:11:00,
2013-01-13 15:22:00,1.0,-6.0,30.15,ENE,71,3.0,4.0,70,-99.99,,,-99.99,191.000000,,2013-01-13 22:22:00,
2013-01-13 15:42:00,2.0,-6.0,30.16,NNW,348,3.0,3.0,70,-99.99,,,-99.99,168.500000,,2013-01-13 22:42:00,
2013-01-13 15:52:00,2.0,-6.0,30.16,North,349,3.0,3.0,70,-99.99,,,-99.99,155.500000,,2013-01-13 22:52:00,
2013-01-13 16:02:00,2.0,-6.0,30.16,NNE,16,2.0,3.0,70,-99.99,,,-99.99,142.300003,,2013-01-13 23:02:00,
2013-01-13 16:11:00,2.0,-6.0,30.16,East,84,1.0,2.0,70,-99.99,,,-99.99,127.900002,,2013-01-13 23:11:00,
2013-01-13 16:22:00,2.0,-6.0,30.16,South,183,2.0,2.0,69,-99.99,,,-99.99,114.500000,,2013-01-13 23:22:00,
2013-01-13 16:32:00,2.0,-6.0,30.16,SSE,167,2.0,2.0,69,-99.99,,,-99.99,99.500000,,2013-01-13 23:32:00,
2013-01-13 16:42:00,2.0,-5.0,30.16,South,177,2.0,2.0,69,-99.99,,,-99.99,83.500000,,2013-01-13 23:42:00,
2013-01-13 16:52:00,2.0,-6.0,30.16,WSW,241,1.0,2.0,68,-99.99,,,-99.99,69.199997,,2013-01-13 23:52:00,
2013-01-13 17:02:00,1.0,-6.0,30.16,West,266,2.0,3.0,69,-99.99,,,-99.99,53.799999,,2013-01-14 00:02:00,
2013-01-13 17:12:00,1.0,-6.0,30.16,WSW,255,2.0,2.0,69,-99.99,,,-99.99,46.000000,,2013-01-14 00:12:00,
2013-01-13 17:32:00,-3.0,-9.0,30.16,SSW,199,2.0,3.0,75,-99.99,,,-99.99,8.300000,,2013-01-14 00:32:00,
2013-01-13 17:42:00,-2.0,-7.0,30.16,SW,235,1.0,2.0,76,-99.99,,,-99.99,2.300000,,2013-01-14 00:42:00,
2013-01-13 17:52:00,-5.0,-11.0,30.16,SSW,206,1.0,2.0,75,-99.99,,,-99.99,0.700000,,2013-01-14 00:52:00,
2013-01-13 18:02:00,-6.0,-12.0,30.16,SE,133,1.0,2.0,75,-99.99,,,-99.99,0.100000,,2013-01-14 01:02:00,
2013-01-13 18:12:00,-7.0,-12.0,30.16,East,84,2.0,2.0,76,-99.99,,,-99.99,0.000000,,2013-01-14 01:12:00,
2013-01-13 18:22:00,-7.0,-13.0,30.16,ESE,106,3.0,4.0,76,-99.99,,,-99.99,-0.100000,,2013-01-14 01:22:00,